createdAt,value
2022-11-10T00:01:18.936Z,100839.75
2022-11-10T00:03:48.628Z,100834.75
2022-11-10T00:06:15.668Z,100839.03
2022-11-10T00:08:42.638Z,100832.34
2022-11-10T00:11:10.103Z,100839.03
2022-11-10T00:14:01.152Z,100837.59
2022-11-10T00:16:46.827Z,100838.19
2022-11-10T00:19:13.833Z,100838.78
2022-11-10T00:21:40.834Z,100838.53
2022-11-10T00:24:08.167Z,100849.00
2022-11-10T00:26:35.125Z,100854.25
2022-11-10T00:29:02.105Z,100851.91
2022-11-10T00:31:29.152Z,100857.72
2022-11-10T00:33:56.623Z,100859.88
2022-11-10T00:36:24.560Z,100853.06
2022-11-10T00:38:52.442Z,100859.50
2022-11-10T00:41:19.951Z,100858.78
2022-11-10T00:43:47.500Z,100862.13
2022-11-10T00:46:15.580Z,100865.00
2022-11-10T00:48:42.575Z,100860.81
2022-11-10T00:51:41.123Z,100857.38
2022-11-10T00:54:08.340Z,100863.78
2022-11-10T00:56:35.406Z,100865.88
2022-11-10T00:59:02.400Z,100869.31
2022-11-10T01:01:29.495Z,100874.28
2022-11-10T01:03:56.503Z,100875.69
2022-11-10T01:06:23.473Z,100877.19
2022-11-10T01:08:50.624Z,100881.09
2022-11-10T01:11:22.945Z,100886.94
2022-11-10T01:13:55.649Z,100879.66
2022-11-10T01:16:31.248Z,100880.03
2022-11-10T01:19:02.433Z,100869.06
2022-11-10T01:21:30.892Z,100877.50
2022-11-10T01:23:58.468Z,100882.88
2022-11-10T01:26:26.165Z,100885.88
2022-11-10T01:28:53.133Z,100888.94
2022-11-10T01:31:22.418Z,100893.13
2022-11-10T01:33:49.803Z,100902.16
2022-11-10T01:36:16.893Z,100888.13
2022-11-10T01:38:44.464Z,100903.59
2022-11-10T01:41:14.430Z,100898.38
2022-11-10T01:43:42.154Z,100901.09
2022-11-10T01:46:14.053Z,100907.19
2022-11-10T01:48:59.919Z,100908.00
2022-11-10T01:52:02.866Z,100917.66
2022-11-10T01:54:36.202Z,100926.59
2022-11-10T01:57:09.960Z,100921.94
2022-11-10T01:59:47.456Z,100928.13
2022-11-10T02:02:30.854Z,100941.47
2022-11-10T02:05:00.328Z,100936.00
2022-11-10T02:07:27.662Z,100935.41
2022-11-10T02:09:54.689Z,100935.16
2022-11-10T02:12:36.845Z,100934.31
2022-11-10T02:15:13.052Z,100936.94
2022-11-10T02:17:40.693Z,100940.06
2022-11-10T02:20:12.652Z,100945.41
2022-11-10T02:22:40.405Z,100938.72
2022-11-10T02:25:08.271Z,100949.72
2022-11-10T02:27:35.322Z,100946.13
2022-11-10T02:30:02.446Z,100949.22
2022-11-10T02:32:29.418Z,100954.81
2022-11-10T02:34:56.392Z,100964.00
2022-11-10T02:37:23.413Z,100963.38
2022-11-10T02:39:50.391Z,100968.38
2022-11-10T02:42:20.538Z,100965.66
2022-11-10T02:44:47.785Z,100968.16
2022-11-10T02:47:15.258Z,100966.88
2022-11-10T02:49:42.232Z,100977.56
2022-11-10T02:52:09.251Z,100976.84
2022-11-10T02:54:36.237Z,100971.97
2022-11-10T02:57:03.507Z,100984.34
2022-11-10T02:59:30.516Z,100988.38
2022-11-10T03:01:57.497Z,100983.53
2022-11-10T03:04:24.598Z,100986.72
2022-11-10T03:06:51.628Z,100988.28
2022-11-10T03:09:18.652Z,100993.03
2022-11-10T03:11:45.628Z,100994.13
2022-11-10T03:14:12.645Z,100993.19
2022-11-10T03:16:39.625Z,101007.44
2022-11-10T03:19:06.696Z,101009.38
2022-11-10T03:21:33.667Z,101012.09
2022-11-10T03:24:00.629Z,101018.91
2022-11-10T03:26:28.172Z,101022.25
2022-11-10T03:28:55.146Z,101030.69
2022-11-10T03:31:22.187Z,101038.16
2022-11-10T03:33:49.183Z,101041.41
2022-11-10T03:36:16.312Z,101046.16
2022-11-10T03:38:43.305Z,101046.97
2022-11-10T03:41:19.672Z,101047.69
2022-11-10T03:43:49.230Z,101052.22
2022-11-10T03:46:17.471Z,101054.84
2022-11-10T03:48:48.887Z,101052.09
2022-11-10T03:51:20.553Z,101052.81
2022-11-10T03:53:47.649Z,101048.13
2022-11-10T03:56:14.670Z,101056.34
2022-11-10T03:58:41.929Z,101058.50
2022-11-10T04:01:09.047Z,101053.06
2022-11-10T04:03:36.066Z,101065.16
2022-11-10T04:06:21.924Z,101066.09
2022-11-10T04:09:00.731Z,101065.19
2022-11-10T04:11:48.320Z,101072.28
2022-11-10T04:14:35.251Z,101075.69
2022-11-10T04:17:03.045Z,101086.25
2022-11-10T04:19:30.726Z,101085.31
2022-11-10T04:21:58.153Z,101078.41
2022-11-10T04:24:25.138Z,101088.78
2022-11-10T04:26:54.620Z,101096.84
2022-11-10T04:29:25.536Z,101100.31
2022-11-10T04:31:52.514Z,101098.41
2022-11-10T04:34:19.749Z,101107.09
2022-11-10T04:36:46.911Z,101112.28
2022-11-10T04:39:17.456Z,101115.75
2022-11-10T04:41:44.454Z,101120.56
2022-11-10T04:44:11.421Z,101123.53
2022-11-10T04:46:40.323Z,101123.94
2022-11-10T04:49:08.349Z,101122.66
2022-11-10T04:51:39.917Z,101128.22
2022-11-10T04:54:12.457Z,101128.44
2022-11-10T04:56:41.216Z,101133.03
2022-11-10T04:59:08.388Z,101136.41
2022-11-10T05:01:35.367Z,101134.72
2022-11-10T05:04:02.422Z,101137.03
2022-11-10T05:06:29.466Z,101133.91
2022-11-10T05:08:56.474Z,101143.75
2022-11-10T05:11:23.798Z,101141.25
2022-11-10T05:13:50.927Z,101147.31
2022-11-10T05:16:17.978Z,101147.06
2022-11-10T05:18:45.042Z,101152.94
2022-11-10T05:21:12.053Z,101160.88
2022-11-10T05:23:39.263Z,101160.88
2022-11-10T05:26:10.830Z,101163.56
2022-11-10T05:28:39.751Z,101173.63
2022-11-10T05:31:07.169Z,101174.84
2022-11-10T05:33:36.118Z,101184.28
2022-11-10T05:36:03.756Z,101191.59
2022-11-10T05:38:31.453Z,101198.50
2022-11-10T05:40:58.807Z,101205.19
2022-11-10T05:43:38.957Z,101204.44
2022-11-10T05:46:10.657Z,101212.50
2022-11-10T05:48:37.856Z,101216.16
2022-11-10T05:51:05.106Z,101228.38
2022-11-10T05:53:32.511Z,101234.88
2022-11-10T05:56:00.215Z,101230.41
2022-11-10T05:58:27.229Z,101237.72
2022-11-10T06:00:54.356Z,101247.53
2022-11-10T06:03:22.277Z,101254.72
2022-11-10T06:05:49.581Z,101265.25
2022-11-10T06:08:17.780Z,101253.13
2022-11-10T06:10:45.204Z,101273.59
2022-11-10T06:13:12.202Z,101280.03
2022-11-10T06:15:40.072Z,101283.97
2022-11-10T06:18:07.333Z,101280.53
2022-11-10T06:20:34.621Z,101290.22
2022-11-10T06:23:10.368Z,101285.75
2022-11-10T06:25:41.274Z,101291.06
2022-11-10T06:28:10.014Z,101301.34
2022-11-10T06:30:38.610Z,101309.34
2022-11-10T06:33:05.671Z,101309.66
2022-11-10T06:35:32.775Z,101321.03
2022-11-10T06:38:06.553Z,101329.78
2022-11-10T06:40:34.337Z,101328.00
2022-11-10T06:43:02.214Z,101335.00
2022-11-10T06:45:29.390Z,101343.59
2022-11-10T06:48:05.920Z,101351.69
2022-11-10T06:50:33.921Z,101355.31
2022-11-10T06:53:02.080Z,101361.13
2022-11-10T06:55:30.375Z,101369.97
2022-11-10T06:57:57.747Z,101377.97
2022-11-10T07:00:28.443Z,101380.31
2022-11-10T07:03:07.162Z,101384.97
2022-11-10T07:05:36.634Z,101393.56
2022-11-10T07:08:13.634Z,101396.91
2022-11-10T07:10:43.832Z,101407.06
2022-11-10T07:13:12.830Z,101404.00
2022-11-10T07:15:40.115Z,101411.75
2022-11-10T07:18:07.352Z,101422.56
2022-11-10T07:20:35.332Z,101430.22
2022-11-10T07:23:07.074Z,101427.06
2022-11-10T07:25:37.354Z,101434.44
2022-11-10T07:28:08.264Z,101431.44
2022-11-10T07:30:36.566Z,101444.25
2022-11-10T07:33:09.510Z,101443.91
2022-11-10T07:35:37.155Z,101440.78
2022-11-10T07:38:12.960Z,101440.22
2022-11-10T07:40:40.243Z,101441.97
2022-11-10T07:43:07.246Z,101446.50
2022-11-10T07:45:34.467Z,101457.31
2022-11-10T07:48:06.327Z,101453.31
2022-11-10T07:50:34.492Z,101462.00
2022-11-10T07:53:18.014Z,101456.97
2022-11-10T07:55:46.263Z,101457.09
2022-11-10T07:58:17.733Z,101468.50
2022-11-10T08:00:46.923Z,101475.50
2022-11-10T08:03:21.101Z,101476.81
2022-11-10T08:05:48.828Z,101474.28
2022-11-10T08:08:15.897Z,101482.38
2022-11-10T08:10:43.672Z,101480.94
2022-11-10T08:13:13.168Z,101481.84
2022-11-10T08:15:42.301Z,101477.28
2022-11-10T08:18:18.898Z,101485.44
2022-11-10T08:20:46.481Z,101486.84
2022-11-10T08:23:17.447Z,101495.00
2022-11-10T08:25:46.653Z,101508.63
2022-11-10T08:28:17.904Z,101505.22
2022-11-10T08:30:48.036Z,101500.09
2022-11-10T08:33:19.024Z,101512.38
2022-11-10T08:35:52.688Z,101509.97
2022-11-10T08:38:23.267Z,101511.88
2022-11-10T08:40:50.813Z,101520.56
2022-11-10T08:43:21.109Z,101523.09
2022-11-10T08:45:48.325Z,101530.84
2022-11-10T08:48:20.057Z,101537.34
2022-11-10T08:50:49.581Z,101541.13
2022-11-10T08:53:21.941Z,101541.53
2022-11-10T08:55:50.079Z,101545.53
2022-11-10T08:58:22.021Z,101553.94
2022-11-10T09:00:50.188Z,101564.84
2022-11-10T09:03:26.683Z,101563.91
2022-11-10T09:05:58.268Z,101574.78
2022-11-10T09:08:26.470Z,101577.31
2022-11-10T09:10:53.547Z,101579.09
2022-11-10T09:13:29.405Z,101582.03
2022-11-10T09:16:02.976Z,101583.84
2022-11-10T09:18:30.872Z,101580.38
2022-11-10T09:20:58.002Z,101595.34
2022-11-10T09:23:26.475Z,101599.38
2022-11-10T09:25:56.114Z,101598.19
2022-11-10T09:28:23.818Z,101590.41
2022-11-10T09:30:52.337Z,101601.44
2022-11-10T09:33:20.544Z,101601.31
2022-11-10T09:35:47.993Z,101595.44
2022-11-10T09:38:15.007Z,101593.44
2022-11-10T09:41:09.070Z,101604.66
2022-11-10T09:44:14.441Z,101600.88
2022-11-10T09:46:53.514Z,101616.38
2022-11-10T09:49:39.244Z,101609.00
2022-11-10T09:52:10.286Z,101622.25
2022-11-10T09:54:51.405Z,101622.03
2022-11-10T09:57:24.486Z,101622.94
2022-11-10T09:59:52.319Z,101622.47
2022-11-10T10:02:45.442Z,101620.69
2022-11-10T10:05:53.678Z,101619.91
2022-11-10T10:08:53.885Z,101617.53
2022-11-10T10:12:35.840Z,101624.47
2022-11-10T10:16:07.489Z,101625.91
2022-11-10T10:19:35.650Z,101621.13
2022-11-10T10:22:16.071Z,101628.03
2022-11-10T10:24:43.380Z,101624.00
2022-11-10T10:27:26.655Z,101620.13
2022-11-10T10:29:56.876Z,101622.97
2022-11-10T10:32:30.056Z,101620.09
2022-11-10T10:34:57.783Z,101621.50
2022-11-10T10:37:54.206Z,101626.88
2022-11-10T10:40:24.724Z,101632.03
2022-11-10T10:42:51.947Z,101633.47
2022-11-10T10:45:29.809Z,101637.59
2022-11-10T10:47:58.480Z,101631.44
2022-11-10T10:50:33.112Z,101637.81
2022-11-10T10:53:23.156Z,101638.31
2022-11-10T10:56:16.441Z,101640.59
2022-11-10T10:59:01.262Z,101644.53
2022-11-10T11:01:37.060Z,101645.13
2022-11-10T11:04:43.691Z,101643.13
2022-11-10T11:07:25.901Z,101639.53
2022-11-10T11:09:53.214Z,101647.22
2022-11-10T11:12:22.523Z,101647.91
2022-11-10T11:14:49.617Z,101645.94
2022-11-10T11:17:23.200Z,101640.25
2022-11-10T11:19:59.894Z,101641.53
2022-11-10T11:22:57.174Z,101648.75
2022-11-10T11:25:39.247Z,101658.75
2022-11-10T11:29:20.247Z,101656.38
2022-11-10T11:32:45.685Z,101660.81
2022-11-10T11:36:11.141Z,101659.25
2022-11-10T11:39:19.609Z,101659.03
2022-11-10T11:42:19.198Z,101657.97
2022-11-10T11:45:29.097Z,101655.19
2022-11-10T11:48:33.849Z,101662.13
2022-11-10T11:51:44.200Z,101655.41
2022-11-10T11:54:48.531Z,101657.81
2022-11-10T11:57:46.064Z,101659.97
2022-11-10T12:00:22.176Z,101652.94
2022-11-10T12:03:42.830Z,101665.09
2022-11-10T12:06:59.216Z,101666.53
2022-11-10T12:10:12.233Z,101661.91
2022-11-10T12:13:08.928Z,101665.03
2022-11-10T12:16:24.049Z,101656.53
2022-11-10T12:19:13.837Z,101667.28
2022-11-10T12:21:57.844Z,101666.91
2022-11-10T12:25:07.304Z,101664.50
2022-11-10T12:27:43.454Z,101661.88
2022-11-10T12:30:15.681Z,101667.38
2022-11-10T12:32:56.390Z,101671.91
2022-11-10T12:35:34.192Z,101686.41
2022-11-10T12:38:21.686Z,101681.88
2022-11-10T12:41:04.928Z,101687.03
2022-11-10T12:43:57.466Z,101695.91
2022-11-10T12:46:24.764Z,101694.22
2022-11-10T12:49:32.407Z,101697.56
2022-11-10T12:52:21.519Z,101700.22
2022-11-10T12:54:53.115Z,101700.44
2022-11-10T12:57:34.299Z,101704.75
2022-11-10T13:00:27.445Z,101697.09
2022-11-10T13:02:57.203Z,101699.94
2022-11-10T13:05:36.729Z,101714.78
2022-11-10T13:08:20.085Z,101711.47
2022-11-10T13:11:28.591Z,101713.25
2022-11-10T13:14:40.615Z,101704.66
2022-11-10T13:17:57.058Z,101710.03
2022-11-10T13:20:39.465Z,101718.03
2022-11-10T13:23:30.325Z,101712.44
2022-11-10T13:26:44.131Z,101703.31
2022-11-10T13:29:43.960Z,101721.50
2022-11-10T13:32:35.683Z,101716.72
2022-11-10T13:35:30.525Z,101726.28
2022-11-10T13:38:00.631Z,101724.88
2022-11-10T13:40:32.808Z,101728.84
2022-11-10T13:42:59.932Z,101718.66
2022-11-10T13:45:44.949Z,101731.47
2022-11-10T13:48:11.802Z,101734.69
2022-11-10T13:51:25.555Z,101738.78
2022-11-10T13:54:49.944Z,101736.59
2022-11-10T13:57:49.883Z,101736.97
2022-11-10T14:00:19.459Z,101739.94
2022-11-10T14:02:58.968Z,101748.25
2022-11-10T14:05:29.263Z,101742.06
2022-11-10T14:08:06.159Z,101751.25
2022-11-10T14:10:49.158Z,101773.16
2022-11-10T14:14:04.746Z,101760.81
2022-11-10T14:16:39.776Z,101764.56
2022-11-10T14:19:40.220Z,101758.03
2022-11-10T14:22:47.299Z,101772.56
2022-11-10T14:25:41.097Z,101780.19
2022-11-10T14:28:31.948Z,101781.06
2022-11-10T14:31:00.045Z,101789.19
2022-11-10T14:33:30.779Z,101789.19
2022-11-10T14:36:09.235Z,101793.22
2022-11-10T14:38:44.696Z,101799.63
2022-11-10T14:41:20.922Z,101805.09
2022-11-10T14:44:11.298Z,101814.03
2022-11-10T14:46:38.572Z,101820.75
2022-11-10T14:49:05.639Z,101822.81
2022-11-10T14:51:38.220Z,101819.44
2022-11-10T14:54:07.189Z,101820.91
2022-11-10T14:56:36.825Z,101830.59
2022-11-10T14:59:07.830Z,101827.53
2022-11-10T15:01:48.110Z,101835.78
2022-11-10T15:04:16.083Z,101838.56
2022-11-10T15:06:47.067Z,101843.63
2022-11-10T15:09:32.041Z,101844.91
2022-11-10T15:12:23.399Z,101849.97
2022-11-10T15:15:17.698Z,101847.47
2022-11-10T15:17:52.443Z,101856.09
2022-11-10T15:20:41.200Z,101861.56
2022-11-10T15:23:40.532Z,101866.81
2022-11-10T15:26:25.491Z,101862.72
2022-11-10T15:28:53.841Z,101872.72
2022-11-10T15:31:33.890Z,101872.50
2022-11-10T15:34:05.008Z,101874.69
2022-11-10T15:36:39.568Z,101872.72
2022-11-10T15:39:12.731Z,101874.81
2022-11-10T15:41:46.749Z,101870.59
2022-11-10T15:44:24.132Z,101876.91
2022-11-10T15:46:58.933Z,101884.47
2022-11-10T15:49:37.422Z,101884.16
2022-11-10T15:52:22.880Z,101883.00
2022-11-10T15:54:51.632Z,101887.13
2022-11-10T15:57:20.282Z,101880.41
2022-11-10T15:59:47.281Z,101873.34
2022-11-10T16:02:24.935Z,101871.34
2022-11-10T16:05:00.053Z,101871.88
2022-11-10T16:07:27.587Z,101876.72
2022-11-10T16:09:54.648Z,101882.16
2022-11-10T16:12:23.494Z,101877.19
2022-11-10T16:14:53.416Z,101880.88
2022-11-10T16:17:22.707Z,101890.41
2022-11-10T16:19:49.679Z,101882.97
2022-11-10T16:22:19.146Z,101894.41
2022-11-10T16:24:47.057Z,101896.28
2022-11-10T16:27:15.342Z,101888.91
2022-11-10T16:29:43.130Z,101893.31
2022-11-10T16:32:12.232Z,101905.53
2022-11-10T16:34:39.278Z,101904.69
2022-11-10T16:37:06.369Z,101912.09
2022-11-10T16:39:33.349Z,101917.53
2022-11-10T16:42:00.540Z,101925.06
2022-11-10T16:44:27.580Z,101925.47
2022-11-10T16:46:57.213Z,101922.44
2022-11-10T16:49:35.348Z,101928.09
2022-11-10T16:52:15.190Z,101920.69
2022-11-10T16:54:42.232Z,101922.66
2022-11-10T16:57:17.300Z,101924.25
2022-11-10T16:59:45.667Z,101925.06
2022-11-10T17:02:30.307Z,101921.34
2022-11-10T17:04:57.434Z,101926.22
2022-11-10T17:07:29.081Z,101927.06
2022-11-10T17:10:00.825Z,101938.75
2022-11-10T17:12:27.805Z,101945.84
2022-11-10T17:14:54.915Z,101944.16
2022-11-10T17:17:22.111Z,101945.84
2022-11-10T17:19:51.093Z,101946.28
2022-11-10T17:22:21.499Z,101950.53
2022-11-10T17:24:54.879Z,101954.31
2022-11-10T17:27:22.049Z,101951.69
2022-11-10T17:29:49.065Z,101962.44
2022-11-10T17:32:16.071Z,101970.31
2022-11-10T17:34:43.101Z,101970.66
2022-11-10T17:37:15.480Z,101987.53
2022-11-10T17:39:42.508Z,101982.91
2022-11-10T17:42:15.406Z,101988.47
2022-11-10T17:44:42.526Z,101979.28
2022-11-10T17:47:09.497Z,101980.31
2022-11-10T17:49:36.699Z,101986.22
2022-11-10T17:52:04.098Z,101980.97
2022-11-10T17:54:31.421Z,101983.69
2022-11-10T17:56:58.443Z,101987.06
2022-11-10T17:59:25.472Z,101981.72
2022-11-10T18:01:52.539Z,101982.91
2022-11-10T18:04:19.792Z,101977.84
2022-11-10T18:06:46.838Z,101976.38
2022-11-10T18:09:14.170Z,101975.97
2022-11-10T18:11:41.124Z,101980.38
2022-11-10T18:14:11.353Z,101983.66
2022-11-10T18:16:38.680Z,101973.91
2022-11-10T18:19:05.772Z,101979.91
2022-11-10T18:21:32.749Z,101975.19
2022-11-10T18:23:59.784Z,101980.44
2022-11-10T18:26:26.805Z,101982.78
2022-11-10T18:28:56.240Z,101987.84
2022-11-10T18:31:23.284Z,101991.94
2022-11-10T18:33:53.844Z,101995.50
2022-11-10T18:36:20.991Z,101997.84
2022-11-10T18:38:48.035Z,102000.66
2022-11-10T18:41:33.611Z,101997.94
2022-11-10T18:44:00.579Z,101997.94
2022-11-10T18:46:27.639Z,102000.28
2022-11-10T18:48:54.617Z,102007.59
2022-11-10T18:51:21.611Z,102001.97
2022-11-10T18:53:48.627Z,102009.47
2022-11-10T18:56:15.714Z,102016.88
2022-11-10T18:58:42.913Z,102016.88
2022-11-10T19:01:11.306Z,102009.94
2022-11-10T19:03:38.728Z,102005.34
2022-11-10T19:06:06.520Z,102003.44
2022-11-10T19:08:33.511Z,101999.53
2022-11-10T19:11:00.774Z,102003.66
2022-11-10T19:13:30.117Z,102004.50
2022-11-10T19:16:00.182Z,102019.00
2022-11-10T19:18:29.659Z,102019.94
2022-11-10T19:21:03.539Z,102019.31
2022-11-10T19:23:30.848Z,102019.00
2022-11-10T19:26:03.571Z,102027.81
2022-11-10T19:28:30.904Z,102032.03
2022-11-10T19:31:10.889Z,102043.38
2022-11-10T19:33:42.739Z,102031.97
2022-11-10T19:36:10.842Z,102020.34
2022-11-10T19:38:38.250Z,102020.34
2022-11-10T19:41:15.898Z,102008.91
2022-11-10T19:43:47.310Z,102013.75
2022-11-10T19:46:22.026Z,102017.50
2022-11-10T19:48:49.311Z,102029.16
2022-11-10T19:51:18.937Z,102022.97
2022-11-10T19:53:49.205Z,102026.44
2022-11-10T19:56:20.289Z,102024.56
2022-11-10T19:58:48.789Z,102031.69
2022-11-10T20:01:18.669Z,102025.59
2022-11-10T20:03:46.722Z,102027.56
2022-11-10T20:06:23.899Z,102032.44
2022-11-10T20:08:51.243Z,102026.63
2022-11-10T20:11:27.027Z,102041.44
2022-11-10T20:14:00.514Z,102053.91
2022-11-10T20:16:27.581Z,102051.53
2022-11-10T20:18:54.931Z,102061.31
2022-11-10T20:21:23.685Z,102056.44
2022-11-10T20:23:57.354Z,102066.75
2022-11-10T20:26:25.935Z,102059.16
2022-11-10T20:28:53.207Z,102062.34
2022-11-10T20:31:26.176Z,102063.47
2022-11-10T20:33:56.282Z,102061.78
2022-11-10T20:36:33.836Z,102074.16
2022-11-10T20:39:03.838Z,102071.44
2022-11-10T20:41:32.893Z,102081.56
2022-11-10T20:43:59.932Z,102083.44
2022-11-10T20:46:53.406Z,102084.38
2022-11-10T20:49:19.171Z,102081.56
2022-11-10T20:51:46.208Z,102083.44
2022-11-10T20:54:15.012Z,102081.47
2022-11-10T20:56:41.977Z,102082.50
2022-11-10T20:59:09.397Z,102082.59
2022-11-10T21:01:37.570Z,102091.31
2022-11-10T21:04:06.080Z,102111.28
2022-11-10T21:06:33.374Z,102100.78
2022-11-10T21:09:00.530Z,102102.56
2022-11-10T21:11:45.934Z,102114.66
2022-11-10T21:14:13.420Z,102112.22
2022-11-10T21:16:40.445Z,102110.81
2022-11-10T21:19:07.444Z,102112.03
2022-11-10T21:21:34.827Z,102115.50
2022-11-10T21:24:07.685Z,102112.13
2022-11-10T21:26:35.739Z,102106.22
2022-11-10T21:29:06.315Z,102105.09
2022-11-10T21:31:33.899Z,102099.19
2022-11-10T21:34:00.978Z,102102.28
2022-11-10T21:36:29.457Z,102090.03
2022-11-10T21:38:58.634Z,102086.06
2022-11-10T21:41:26.694Z,102088.78
2022-11-10T21:43:53.880Z,102091.63
2022-11-10T21:46:21.050Z,102091.97
2022-11-10T21:48:50.159Z,102099.28
2022-11-10T21:51:17.475Z,102090.66
2022-11-10T21:53:44.455Z,102098.16
2022-11-10T21:56:12.412Z,102098.53
2022-11-10T21:58:40.315Z,102107.13
2022-11-10T22:01:18.243Z,102115.75
2022-11-10T22:03:45.834Z,102109.75
2022-11-10T22:06:17.279Z,102104.72
2022-11-10T22:08:47.082Z,102109.09
2022-11-10T22:11:36.977Z,102103.19
2022-11-10T22:14:30.990Z,102115.72
2022-11-10T22:17:17.855Z,102119.19
2022-11-10T22:19:45.405Z,102127.34
2022-11-10T22:22:14.342Z,102136.41
2022-11-10T22:24:41.680Z,102138.19
2022-11-10T22:27:08.804Z,102140.78
2022-11-10T22:29:36.229Z,102137.19
2022-11-10T22:32:03.856Z,102130.78
2022-11-10T22:34:30.827Z,102139.72
2022-11-10T22:36:59.558Z,102142.03
2022-11-10T22:39:49.475Z,102138.50
2022-11-10T22:42:35.294Z,102138.41
2022-11-10T22:45:02.351Z,102138.13
2022-11-10T22:47:49.651Z,102130.81
2022-11-10T22:50:16.697Z,102133.59
2022-11-10T22:52:43.736Z,102138.28
2022-11-10T22:55:10.833Z,102139.34
2022-11-10T22:57:37.808Z,102139.50
2022-11-10T23:00:06.394Z,102139.59
2022-11-10T23:02:33.438Z,102142.47
2022-11-10T23:05:00.473Z,102130.31
2022-11-10T23:07:28.946Z,102128.94
2022-11-10T23:09:55.925Z,102128.78
2022-11-10T23:12:22.903Z,102140.13
2022-11-10T23:14:49.878Z,102141.81
2022-11-10T23:17:16.836Z,102142.47
2022-11-10T23:19:43.824Z,102151.63
2022-11-10T23:22:10.794Z,102159.94
2022-11-10T23:24:37.783Z,102165.69
2022-11-10T23:27:04.754Z,102160.38
2022-11-10T23:29:31.742Z,102170.16
2022-11-10T23:31:58.675Z,102166.09
2022-11-10T23:34:25.632Z,102161.19
2022-11-10T23:36:52.593Z,102158.38
2022-11-10T23:39:19.557Z,102157.94
2022-11-10T23:41:46.539Z,102154.97
2022-11-10T23:44:13.560Z,102154.91
2022-11-10T23:46:40.610Z,102155.88
2022-11-10T23:49:07.564Z,102160.06
2022-11-10T23:51:34.566Z,102164.13
2022-11-10T23:54:01.515Z,102170.25
2022-11-10T23:56:28.494Z,102165.66
2022-11-10T23:58:55.467Z,102172.72
